createdAt,value
2018-06-23T00:01:56.506Z,102169.99
2018-06-23T00:04:22.492Z,102165.24
2018-06-23T00:06:48.476Z,102170.39
2018-06-23T00:09:14.463Z,102172.16
2018-06-23T00:11:40.435Z,102175.14
2018-06-23T00:14:06.443Z,102170.70
2018-06-23T00:16:32.551Z,102173.21
2018-06-23T00:18:58.539Z,102168.07
2018-06-23T00:21:24.533Z,102172.64
2018-06-23T00:23:50.524Z,102173.21
2018-06-23T00:26:16.518Z,102170.94
2018-06-23T00:28:42.488Z,102171.67
2018-06-23T00:31:08.456Z,102170.56
2018-06-23T00:33:34.429Z,102172.55
2018-06-23T00:36:00.431Z,102166.69
2018-06-23T00:38:26.402Z,102168.35
2018-06-23T00:40:52.401Z,102170.83
2018-06-23T00:43:18.383Z,102176.40
2018-06-23T00:45:44.353Z,102171.27
2018-06-23T00:48:10.338Z,102176.02
2018-06-23T00:50:36.317Z,102173.82
2018-06-23T00:53:02.291Z,102171.70
2018-06-23T00:55:28.293Z,102168.73
2018-06-23T00:57:54.269Z,102169.02
2018-06-23T01:00:20.379Z,102172.05
2018-06-23T01:02:46.244Z,102173.75
2018-06-23T01:05:12.295Z,102168.07
2018-06-23T01:07:38.263Z,102168.56
2018-06-23T01:10:04.229Z,102182.23
2018-06-23T01:12:30.226Z,102174.91
2018-06-23T01:14:56.221Z,102172.83
2018-06-23T01:17:22.200Z,102171.87
2018-06-23T01:19:48.254Z,102169.84
2018-06-23T01:22:14.252Z,102167.35
2018-06-23T01:24:40.290Z,102166.23
2018-06-23T01:27:06.279Z,102169.02
2018-06-23T01:29:32.278Z,102168.78
2018-06-23T01:31:58.245Z,102169.05
2018-06-23T01:34:24.239Z,102181.09
2018-06-23T01:36:50.234Z,102176.17
2018-06-23T01:39:16.239Z,102174.25
2018-06-23T01:41:42.244Z,102175.31
2018-06-23T01:44:08.298Z,102173.15
2018-06-23T01:46:34.300Z,102172.05
2018-06-23T01:49:00.288Z,102174.13
2018-06-23T01:51:26.284Z,102168.45
2018-06-23T01:53:52.269Z,102171.11
2018-06-23T01:56:18.251Z,102170.94
2018-06-23T01:58:44.296Z,102168.13
2018-06-23T02:01:10.299Z,102173.92
2018-06-23T02:03:36.273Z,102170.94
2018-06-23T02:06:02.247Z,102169.16
2018-06-23T02:08:28.242Z,102166.75
2018-06-23T02:10:54.221Z,102170.11
2018-06-23T02:13:20.207Z,102171.25
2018-06-23T02:15:46.245Z,102165.80
2018-06-23T02:18:12.243Z,102167.23
2018-06-23T02:20:38.218Z,102168.22
2018-06-23T02:23:04.196Z,102162.31
2018-06-23T02:25:30.165Z,102160.99
2018-06-23T02:27:56.152Z,102155.84
2018-06-23T02:30:22.402Z,102156.67
2018-06-23T02:32:48.396Z,102160.11
2018-06-23T02:35:14.389Z,102168.22
2018-06-23T02:37:40.381Z,102167.83
2018-06-23T02:40:06.387Z,102167.19
2018-06-23T02:42:32.362Z,102164.54
2018-06-23T02:44:58.332Z,102171.88
2018-06-23T02:47:24.315Z,102170.60
2018-06-23T02:49:50.325Z,102166.02
2018-06-23T02:52:16.316Z,102167.73
2018-06-23T02:54:42.342Z,102168.22
2018-06-23T02:57:08.373Z,102171.59
2018-06-23T02:59:34.360Z,102174.26
2018-06-23T03:02:00.373Z,102175.70
2018-06-23T03:04:26.335Z,102169.22
2018-06-23T03:06:52.353Z,102169.80
2018-06-23T03:09:18.318Z,102162.55
2018-06-23T03:11:44.289Z,102159.45
2018-06-23T03:14:10.288Z,102163.05
2018-06-23T03:16:36.262Z,102168.13
2018-06-23T03:19:02.232Z,102172.33
2018-06-23T03:21:28.213Z,102173.30
2018-06-23T03:23:54.194Z,102165.80
2018-06-23T03:26:20.204Z,102172.27
2018-06-23T03:28:46.224Z,102171.45
2018-06-23T03:31:12.197Z,102179.77
2018-06-23T03:33:38.189Z,102180.05
2018-06-23T03:36:04.163Z,102189.56
2018-06-23T03:38:30.159Z,102183.05
2018-06-23T03:40:56.144Z,102185.34
2018-06-23T03:43:22.148Z,102181.98
2018-06-23T03:45:48.156Z,102187.03
2018-06-23T03:48:14.136Z,102188.23
2018-06-23T03:50:40.099Z,102190.66
2018-06-23T03:53:06.073Z,102188.00
2018-06-23T03:55:32.073Z,102195.23
2018-06-23T03:57:58.069Z,102193.66
2018-06-23T04:00:24.072Z,102190.39
2018-06-23T04:02:50.072Z,102190.55
2018-06-23T04:05:16.061Z,102198.85
2018-06-23T04:07:42.028Z,102197.28
2018-06-23T04:10:08.012Z,102201.94
2018-06-23T04:12:34.010Z,102200.00
2018-06-23T04:15:00.023Z,102203.53
2018-06-23T04:17:26.038Z,102196.75
2018-06-23T04:19:52.069Z,102202.94
2018-06-23T04:22:18.070Z,102199.33
2018-06-23T04:24:44.099Z,102197.40
2018-06-23T04:27:10.081Z,102202.37
2018-06-23T04:29:36.090Z,102200.78
2018-06-23T04:32:02.054Z,102206.11
2018-06-23T04:34:28.048Z,102206.57
2018-06-23T04:36:54.020Z,102201.38
2018-06-23T04:39:20.029Z,102206.34
2018-06-23T04:41:46.005Z,102209.11
2018-06-23T04:44:11.986Z,102211.77
2018-06-23T04:46:37.984Z,102199.95
2018-06-23T04:49:04.021Z,102193.55
2018-06-23T04:51:30.019Z,102201.75
2018-06-23T04:53:55.986Z,102197.77
2018-06-23T04:56:21.971Z,102195.03
2018-06-23T04:58:47.956Z,102202.45
2018-06-23T05:01:13.955Z,102202.77
2018-06-23T05:03:39.938Z,102203.03
2018-06-23T05:06:05.913Z,102202.33
2018-06-23T05:08:31.920Z,102198.62
2018-06-23T05:10:57.897Z,102200.66
2018-06-23T05:13:23.899Z,102204.16
2018-06-23T05:15:49.878Z,102195.81
2018-06-23T05:18:15.858Z,102192.09
2018-06-23T05:20:41.830Z,102191.76
2018-06-23T05:23:07.824Z,102197.06
2018-06-23T05:25:33.825Z,102191.99
2018-06-23T05:27:59.835Z,102192.26
2018-06-23T05:30:25.820Z,102192.10
2018-06-23T05:32:51.800Z,102194.52
2018-06-23T05:35:17.788Z,102195.70
2018-06-23T05:37:43.741Z,102199.55
2018-06-23T05:40:09.712Z,102191.59
2018-06-23T05:42:35.689Z,102193.38
2018-06-23T05:45:01.676Z,102192.47
2018-06-23T05:47:27.658Z,102198.34
2018-06-23T05:49:53.653Z,102190.66
2018-06-23T05:52:19.649Z,102191.12
2018-06-23T05:54:45.658Z,102196.92
2018-06-23T05:57:11.615Z,102193.41
2018-06-23T05:59:37.601Z,102191.21
2018-06-23T06:02:03.590Z,102185.87
2018-06-23T06:04:29.592Z,102184.38
2018-06-23T06:06:55.585Z,102183.53
2018-06-23T06:09:21.626Z,102191.39
2018-06-23T06:11:47.704Z,102191.98
2018-06-23T06:14:13.732Z,102196.80
2018-06-23T06:16:39.702Z,102197.01
2018-06-23T06:19:05.688Z,102208.59
2018-06-23T06:21:31.695Z,102204.32
2018-06-23T06:23:58.725Z,102196.97
2018-06-23T06:26:24.767Z,102195.27
2018-06-23T06:28:50.729Z,102191.51
2018-06-23T06:31:17.761Z,102191.77
2018-06-23T06:33:43.787Z,102192.59
2018-06-23T06:36:09.870Z,102193.48
2018-06-23T06:38:35.958Z,102187.53
2018-06-23T06:41:02.021Z,102178.17
2018-06-23T06:43:28.174Z,102182.66
2018-06-23T06:45:58.224Z,102196.02
2018-06-23T06:48:24.252Z,102201.67
2018-06-23T06:50:50.259Z,102218.11
2018-06-23T06:53:16.216Z,102215.91
2018-06-23T06:55:42.205Z,102215.47
2018-06-23T06:58:08.199Z,102211.67
2018-06-23T07:00:34.171Z,102213.89
2018-06-23T07:03:00.189Z,102205.94
2018-06-23T07:05:26.240Z,102207.25
2018-06-23T07:07:52.213Z,102207.69
2018-06-23T07:10:18.198Z,102204.33
2018-06-23T07:12:44.185Z,102205.27
2018-06-23T07:15:10.258Z,102206.91
2018-06-23T07:17:36.256Z,102206.04
2018-06-23T07:20:02.196Z,102201.61
2018-06-23T07:22:28.185Z,102206.31
2018-06-23T07:24:54.141Z,102213.14
2018-06-23T07:27:20.112Z,102207.80
2018-06-23T07:29:46.065Z,102217.41
2018-06-23T07:32:12.034Z,102213.45
2018-06-23T07:34:38.073Z,102209.28
2018-06-23T07:37:04.041Z,102213.37
2018-06-23T07:39:30.618Z,102211.40
2018-06-23T07:41:56.591Z,102215.64
2018-06-23T07:44:22.573Z,102216.19
2018-06-23T07:46:48.548Z,102211.94
2018-06-23T07:49:14.513Z,102208.14
2018-06-23T07:51:40.495Z,102208.22
2018-06-23T07:54:06.484Z,102204.32
2018-06-23T07:56:32.424Z,102211.22
2018-06-23T07:58:58.416Z,102207.19
2018-06-23T08:01:25.131Z,102212.66
2018-06-23T08:03:51.117Z,102207.36
2018-06-23T08:06:17.195Z,102204.62
2018-06-23T08:08:43.225Z,102201.88
2018-06-23T08:11:12.108Z,102201.27
2018-06-23T08:13:38.104Z,102204.98
2018-06-23T08:16:04.070Z,102194.97
2018-06-23T08:18:30.107Z,102189.68
2018-06-23T08:20:56.058Z,102200.09
2018-06-23T08:23:22.032Z,102195.70
2018-06-23T08:25:48.092Z,102196.90
2018-06-23T08:28:14.057Z,102197.29
2018-06-23T08:30:40.054Z,102192.98
2018-06-23T08:33:06.028Z,102193.36
2018-06-23T08:35:32.028Z,102183.42
2018-06-23T08:37:57.992Z,102181.23
2018-06-23T08:40:23.958Z,102182.43
2018-06-23T08:42:49.944Z,102182.20
2018-06-23T08:45:15.921Z,102177.84
2018-06-23T08:47:41.904Z,102180.38
2018-06-23T08:50:07.980Z,102178.13
2018-06-23T08:52:33.974Z,102181.71
2018-06-23T08:54:59.953Z,102176.52
2018-06-23T08:57:25.930Z,102182.66
2018-06-23T08:59:51.962Z,102180.77
2018-06-23T09:02:17.916Z,102177.17
2018-06-23T09:04:44.074Z,102178.13
2018-06-23T09:07:10.193Z,102172.91
2018-06-23T09:09:37.156Z,102168.70
2018-06-23T09:12:03.667Z,102169.46
2018-06-23T09:14:30.204Z,102174.19
2018-06-23T09:16:56.248Z,102165.83
2018-06-23T09:19:22.262Z,102166.47
2018-06-23T09:21:48.252Z,102163.10
2018-06-23T09:24:14.235Z,102155.56
2018-06-23T09:26:40.232Z,102162.08
2018-06-23T09:29:06.226Z,102169.92
2018-06-23T09:31:32.214Z,102159.65
2018-06-23T09:33:58.197Z,102163.25
2018-06-23T09:36:24.253Z,102165.22
2018-06-23T09:38:50.353Z,102160.91
2018-06-23T09:41:17.366Z,102151.70
2018-06-23T09:43:43.331Z,102146.25
2018-06-23T09:46:09.321Z,102143.98
2018-06-23T09:48:35.311Z,102144.36
2018-06-23T09:51:01.301Z,102156.47
2018-06-23T09:53:27.297Z,102154.28
2018-06-23T09:55:53.321Z,102152.66
2018-06-23T09:58:19.296Z,102152.95
2018-06-23T10:00:45.278Z,102152.95
2018-06-23T10:03:11.265Z,102157.80
2018-06-23T10:05:37.236Z,102160.03
2018-06-23T10:08:03.200Z,102157.31
2018-06-23T10:10:30.211Z,102157.80
2018-06-23T10:12:56.155Z,102156.63
2018-06-23T10:15:22.122Z,102154.51
2018-06-23T10:17:48.078Z,102156.77
2018-06-23T10:20:14.076Z,102163.78
2018-06-23T10:22:40.066Z,102155.84
2018-06-23T10:25:06.119Z,102165.06
2018-06-23T10:27:32.094Z,102164.62
2018-06-23T10:29:58.068Z,102170.41
2018-06-23T10:32:24.075Z,102167.94
2018-06-23T10:34:50.601Z,102166.35
2018-06-23T10:37:17.314Z,102168.44
2018-06-23T10:39:43.369Z,102157.11
2018-06-23T10:42:10.175Z,102159.13
2018-06-23T10:44:37.177Z,102163.33
2018-06-23T10:47:03.183Z,102167.86
2018-06-23T10:49:29.156Z,102169.67
2018-06-23T10:51:55.144Z,102169.09
2018-06-23T10:54:21.168Z,102170.77
2018-06-23T10:56:47.139Z,102176.01
2018-06-23T10:59:13.266Z,102175.71
2018-06-23T11:01:39.238Z,102170.85
2018-06-23T11:04:05.219Z,102169.12
2018-06-23T11:06:31.224Z,102167.42
2018-06-23T11:08:57.192Z,102172.30
2018-06-23T11:11:23.319Z,102172.61
2018-06-23T11:13:49.276Z,102169.16
2018-06-23T11:16:15.243Z,102169.76
2018-06-23T11:18:41.216Z,102174.42
2018-06-23T11:21:07.178Z,102171.28
2018-06-23T11:23:33.220Z,102170.36
2018-06-23T11:25:59.180Z,102182.41
2018-06-23T11:28:25.192Z,102164.49
2018-06-23T11:30:51.188Z,102161.38
2018-06-23T11:33:17.243Z,102157.75
2018-06-23T11:35:43.223Z,102156.69
2018-06-23T11:38:09.190Z,102152.27
2018-06-23T11:40:35.174Z,102152.25
2018-06-23T11:43:01.187Z,102156.28
2018-06-23T11:45:27.186Z,102157.78
2018-06-23T11:47:53.160Z,102155.10
2018-06-23T11:50:19.136Z,102160.34
2018-06-23T11:52:45.101Z,102162.53
2018-06-23T11:55:11.071Z,102148.53
2018-06-23T11:57:37.063Z,102154.70
2018-06-23T12:00:03.042Z,102151.27
2018-06-23T12:02:29.179Z,102149.38
2018-06-23T12:04:55.148Z,102158.44
2018-06-23T12:09:46.898Z,102160.75
2018-06-23T12:12:12.875Z,102158.59
2018-06-23T12:14:38.876Z,102151.39
2018-06-23T12:17:04.828Z,102162.79
2018-06-23T12:19:30.826Z,102161.61
2018-06-23T12:21:56.819Z,102167.22
2018-06-23T12:24:22.811Z,102161.95
2018-06-23T12:26:48.888Z,102158.01
2018-06-23T12:29:14.879Z,102154.38
2018-06-23T12:31:40.924Z,102155.22
2018-06-23T12:34:06.887Z,102157.78
2018-06-23T12:36:32.865Z,102154.61
2018-06-23T12:38:58.835Z,102150.72
2018-06-23T12:41:24.889Z,102154.92
2018-06-23T12:43:50.818Z,102152.59
2018-06-23T12:46:16.895Z,102153.29
2018-06-23T12:48:42.918Z,102154.12
2018-06-23T12:51:08.894Z,102144.53
2018-06-23T12:53:34.880Z,102148.97
2018-06-23T12:56:01.672Z,102142.03
2018-06-23T12:58:27.636Z,102142.23
2018-06-23T13:00:53.605Z,102137.45
2018-06-23T13:03:19.623Z,102137.22
2018-06-23T13:05:45.665Z,102120.84
2018-06-23T13:08:11.650Z,102115.80
2018-06-23T13:10:37.707Z,102120.70
2018-06-23T13:13:03.702Z,102118.02
2018-06-23T13:15:29.704Z,102116.27
2018-06-23T13:17:55.656Z,102112.17
2018-06-23T13:20:21.649Z,102113.27
2018-06-23T13:22:47.636Z,102115.69
2018-06-23T13:25:13.606Z,102103.97
2018-06-23T13:27:39.565Z,102098.67
2018-06-23T13:30:05.547Z,102105.67
2018-06-23T13:32:31.652Z,102103.36
2018-06-23T13:34:57.580Z,102101.47
2018-06-23T13:37:23.555Z,102103.55
2018-06-23T13:39:49.526Z,102099.62
2018-06-23T13:42:15.524Z,102098.33
2018-06-23T13:44:41.508Z,102092.28
2018-06-23T13:47:07.548Z,102083.31
2018-06-23T13:49:33.513Z,102083.50
2018-06-23T13:51:59.538Z,102085.16
2018-06-23T13:54:25.529Z,102083.30
2018-06-23T13:56:51.536Z,102074.98
2018-06-23T13:59:17.533Z,102065.22
2018-06-23T14:04:09.380Z,102063.97
2018-06-23T14:06:35.415Z,102066.84
2018-06-23T14:09:01.382Z,102059.66
2018-06-23T14:11:27.386Z,102068.10
2018-06-23T14:13:53.365Z,102062.87
2018-06-23T14:16:19.376Z,102057.71
2018-06-23T14:18:45.369Z,102053.48
2018-06-23T14:21:11.394Z,102053.67
2018-06-23T14:23:37.382Z,102053.78
2018-06-23T14:26:03.388Z,102050.41
2018-06-23T14:28:29.373Z,102049.55
2018-06-23T14:30:55.334Z,102050.11
2018-06-23T14:33:21.333Z,102043.80
2018-06-23T14:35:47.296Z,102042.70
2018-06-23T14:38:13.285Z,102044.17
2018-06-23T14:40:39.283Z,102036.65
2018-06-23T14:43:05.248Z,102030.19
2018-06-23T14:45:31.238Z,102031.13
2018-06-23T14:47:57.238Z,102021.52
2018-06-23T14:50:23.210Z,102023.63
2018-06-23T14:52:49.176Z,102022.31
2018-06-23T14:55:15.150Z,102020.20
2018-06-23T14:57:41.122Z,102009.60
2018-06-23T15:00:07.115Z,102005.12
2018-06-23T15:02:33.123Z,102012.15
2018-06-23T15:04:59.186Z,102012.55
2018-06-23T15:07:25.129Z,102012.81
2018-06-23T15:09:51.110Z,102012.32
2018-06-23T15:12:17.083Z,102010.98
2018-06-23T15:14:43.075Z,102004.93
2018-06-23T15:17:09.067Z,102003.83
2018-06-23T15:19:35.077Z,101994.88
2018-06-23T15:22:01.082Z,101997.45
2018-06-23T15:24:27.175Z,101990.08
2018-06-23T15:26:53.147Z,101989.80
2018-06-23T15:29:19.123Z,101992.45
2018-06-23T15:31:45.143Z,101988.70
2018-06-23T15:34:11.144Z,101991.89
2018-06-23T15:36:37.127Z,101993.09
2018-06-23T15:39:03.168Z,101991.50
2018-06-23T15:41:29.169Z,101984.92
2018-06-23T15:43:55.128Z,101991.77
2018-06-23T15:46:21.131Z,101985.75
2018-06-23T15:48:47.112Z,101986.36
2018-06-23T15:53:39.044Z,101989.64
2018-06-23T15:56:05.020Z,101982.02
2018-06-23T15:58:31.021Z,101973.41
2018-06-23T16:00:57.002Z,101967.33
2018-06-23T16:03:22.963Z,101963.30
2018-06-23T16:05:48.958Z,101955.36
2018-06-23T16:08:14.934Z,101954.64
2018-06-23T16:10:40.945Z,101961.05
2018-06-23T16:13:06.920Z,101951.89
2018-06-23T16:15:32.900Z,101951.38
2018-06-23T16:17:58.898Z,101954.52
2018-06-23T16:20:24.916Z,101951.38
2018-06-23T16:22:50.887Z,101953.05
2018-06-23T16:25:16.894Z,101953.59
2018-06-23T16:27:42.900Z,101945.42
2018-06-23T16:30:08.877Z,101943.21
2018-06-23T16:32:34.861Z,101933.50
2018-06-23T16:35:00.945Z,101934.65
2018-06-23T16:37:26.804Z,101933.18
2018-06-23T16:39:52.758Z,101930.97
2018-06-23T16:42:18.752Z,101926.31
2018-06-23T16:44:44.733Z,101934.92
2018-06-23T16:47:10.704Z,101930.90
2018-06-23T16:49:36.693Z,101936.98
2018-06-23T16:52:02.664Z,101935.61
2018-06-23T16:54:28.645Z,101931.84
2018-06-23T16:56:54.624Z,101924.49
2018-06-23T16:59:20.597Z,101926.27
2018-06-23T17:01:46.542Z,101921.14
2018-06-23T17:04:12.579Z,101915.34
2018-06-23T17:06:38.560Z,101924.72
2018-06-23T17:09:04.564Z,101913.53
2018-06-23T17:11:30.623Z,101915.73
2018-06-23T17:13:56.610Z,101915.52
2018-06-23T17:16:22.586Z,101909.82
2018-06-23T17:18:48.673Z,101905.94
2018-06-23T17:21:14.658Z,101905.95
2018-06-23T17:23:40.601Z,101900.82
2018-06-23T17:26:06.587Z,101896.86
2018-06-23T17:28:32.563Z,101899.45
2018-06-23T17:30:58.579Z,101894.16
2018-06-23T17:33:24.541Z,101901.27
2018-06-23T17:35:50.534Z,101890.75
2018-06-23T17:38:16.514Z,101887.80
2018-06-23T17:40:42.475Z,101894.37
2018-06-23T17:43:08.440Z,101890.89
2018-06-23T17:45:34.434Z,101887.87
2018-06-23T17:48:00.429Z,101881.80
2018-06-23T17:50:26.424Z,101884.83
2018-06-23T17:52:52.547Z,101884.09
2018-06-23T17:55:18.518Z,101882.33
2018-06-23T17:57:44.646Z,101878.20
2018-06-23T18:02:36.329Z,101867.56
2018-06-23T18:05:02.292Z,101872.69
2018-06-23T18:07:28.323Z,101875.03
2018-06-23T18:09:54.287Z,101870.97
2018-06-23T18:12:20.395Z,101873.69
2018-06-23T18:14:46.378Z,101870.11
2018-06-23T18:17:13.400Z,101872.11
2018-06-23T18:19:39.416Z,101865.39
2018-06-23T18:22:05.432Z,101867.61
2018-06-23T18:24:31.399Z,101869.08
2018-06-23T18:26:57.375Z,101861.38
2018-06-23T18:29:23.390Z,101868.44
2018-06-23T18:31:49.417Z,101867.32
2018-06-23T18:34:15.333Z,101869.86
2018-06-23T18:39:07.105Z,101866.06
2018-06-23T18:41:33.107Z,101865.09
2018-06-23T18:43:59.111Z,101865.55
2018-06-23T18:46:25.106Z,101860.28
2018-06-23T18:48:51.097Z,101862.66
2018-06-23T18:51:17.102Z,101869.15
2018-06-23T18:53:43.096Z,101868.41
2018-06-23T18:56:09.100Z,101858.77
2018-06-23T18:58:35.099Z,101862.56
2018-06-23T19:01:01.112Z,101858.83
2018-06-23T19:03:27.087Z,101857.99
2018-06-23T19:05:53.082Z,101859.41
2018-06-23T19:08:19.052Z,101860.55
2018-06-23T19:10:45.037Z,101858.17
2018-06-23T19:13:11.020Z,101861.30
2018-06-23T19:15:37.002Z,101853.80
2018-06-23T19:18:02.973Z,101856.27
2018-06-23T19:20:28.931Z,101856.67
2018-06-23T19:22:54.920Z,101857.28
2018-06-23T19:25:20.896Z,101852.71
2018-06-23T19:27:46.885Z,101854.47
2018-06-23T19:30:12.948Z,101851.06
2018-06-23T19:32:38.897Z,101855.03
2018-06-23T19:35:04.889Z,101847.48
2018-06-23T19:37:30.899Z,101847.30
2018-06-23T19:39:56.919Z,101851.98
2018-06-23T19:42:22.926Z,101852.67
2018-06-23T19:44:48.916Z,101856.77
2018-06-23T19:47:14.889Z,101855.78
2018-06-23T19:49:40.872Z,101859.44
2018-06-23T19:52:06.846Z,101855.86
2018-06-23T19:54:32.844Z,101856.23
2018-06-23T19:56:58.820Z,101858.05
2018-06-23T19:59:24.795Z,101858.97
2018-06-23T20:01:50.772Z,101866.12
2018-06-23T20:04:16.749Z,101857.42
2018-06-23T20:06:42.737Z,101868.30
2018-06-23T20:09:08.843Z,101870.48
2018-06-23T20:11:34.822Z,101872.12
2018-06-23T20:14:00.815Z,101874.23
2018-06-23T20:16:26.816Z,101870.80
2018-06-23T20:18:52.959Z,101873.02
2018-06-23T20:21:19.025Z,101873.55
2018-06-23T20:23:45.024Z,101877.97
2018-06-23T20:26:10.971Z,101875.38
2018-06-23T20:28:36.964Z,101880.00
2018-06-23T20:31:02.955Z,101873.11
2018-06-23T20:33:28.962Z,101871.03
2018-06-23T20:35:54.948Z,101879.14
2018-06-23T20:38:20.947Z,101869.88
2018-06-23T20:40:46.931Z,101872.23
2018-06-23T20:43:12.939Z,101880.13
2018-06-23T20:45:38.907Z,101879.45
2018-06-23T20:48:04.918Z,101875.75
2018-06-23T20:50:30.980Z,101873.95
2018-06-23T20:52:56.995Z,101875.75
2018-06-23T20:55:22.958Z,101869.52
2018-06-23T20:57:48.941Z,101867.48
2018-06-23T21:00:14.936Z,101868.59
2018-06-23T21:02:40.912Z,101869.25
2018-06-23T21:05:06.918Z,101866.12
2018-06-23T21:07:33.107Z,101862.81
2018-06-23T21:09:58.924Z,101865.90
2018-06-23T21:12:24.908Z,101859.95
2018-06-23T21:14:50.894Z,101863.11
2018-06-23T21:17:16.863Z,101869.02
2018-06-23T21:19:42.850Z,101868.73
2018-06-23T21:22:08.855Z,101865.55
2018-06-23T21:24:34.858Z,101863.47
2018-06-23T21:27:00.831Z,101868.78
2018-06-23T21:29:26.805Z,101866.61
2018-06-23T21:31:52.791Z,101859.77
2018-06-23T21:34:18.783Z,101861.20
2018-06-23T21:36:44.769Z,101853.72
2018-06-23T21:39:10.740Z,101853.98
2018-06-23T21:41:36.697Z,101857.78
2018-06-23T21:44:02.662Z,101857.23
2018-06-23T21:46:28.679Z,101854.74
2018-06-23T21:48:54.625Z,101857.13
2018-06-23T21:51:20.667Z,101850.11
2018-06-23T21:53:46.687Z,101847.37
2018-06-23T21:56:12.671Z,101845.20
2018-06-23T21:58:38.649Z,101843.86
2018-06-23T22:01:04.619Z,101842.78
2018-06-23T22:03:30.595Z,101844.59
2018-06-23T22:05:56.551Z,101847.24
2018-06-23T22:08:22.501Z,101843.47
2018-06-23T22:10:48.486Z,101843.48
2018-06-23T22:13:14.465Z,101846.26
2018-06-23T22:15:40.495Z,101841.11
2018-06-23T22:18:06.462Z,101850.28
2018-06-23T22:20:32.427Z,101841.61
2018-06-23T22:22:58.405Z,101844.00
2018-06-23T22:25:24.605Z,101844.88
2018-06-23T22:27:50.564Z,101836.33
2018-06-23T22:30:16.522Z,101832.36
2018-06-23T22:32:42.503Z,101830.97
2018-06-23T22:35:08.518Z,101827.06
2018-06-23T22:37:34.582Z,101830.25
2018-06-23T22:40:00.610Z,101831.02
2018-06-23T22:42:26.710Z,101827.22
2018-06-23T22:44:52.662Z,101829.71
2018-06-23T22:47:18.637Z,101826.77
2018-06-23T22:49:44.695Z,101831.42
2018-06-23T22:52:10.695Z,101822.26
2018-06-23T22:54:36.667Z,101824.73
2018-06-23T22:57:02.718Z,101831.14
2018-06-23T22:59:28.605Z,101822.97
2018-06-23T23:01:54.583Z,101823.63
2018-06-23T23:04:20.573Z,101818.11
2018-06-23T23:06:46.561Z,101821.11
2018-06-23T23:09:12.528Z,101816.58
2018-06-23T23:11:38.486Z,101817.58
2018-06-23T23:14:04.585Z,101810.69
2018-06-23T23:16:30.563Z,101812.50
2018-06-23T23:18:56.539Z,101815.10
2018-06-23T23:21:22.514Z,101813.39
2018-06-23T23:23:48.594Z,101804.47
2018-06-23T23:26:14.576Z,101797.55
2018-06-23T23:28:40.542Z,101804.62
2018-06-23T23:31:06.528Z,101801.77
2018-06-23T23:33:32.492Z,101797.55
2018-06-23T23:35:58.521Z,101793.16
2018-06-23T23:38:24.466Z,101798.51
2018-06-23T23:40:50.454Z,101795.30
2018-06-23T23:43:16.420Z,101784.71
2018-06-23T23:45:42.394Z,101786.82
2018-06-23T23:48:08.332Z,101781.50
2018-06-23T23:50:34.317Z,101783.95
2018-06-23T23:53:00.293Z,101784.71
2018-06-23T23:55:26.345Z,101774.47
2018-06-23T23:57:52.340Z,101770.05
